createdAt,value
2018-12-18T00:00:01.671Z,994.80
2018-12-18T00:01:01.591Z,994.77
2018-12-18T00:02:01.528Z,994.77
2018-12-18T00:03:01.469Z,994.77
2018-12-18T00:04:01.408Z,994.77
2018-12-18T00:05:01.347Z,994.79
2018-12-18T00:06:01.283Z,994.81
2018-12-18T00:07:01.223Z,994.80
2018-12-18T00:08:01.162Z,994.81
2018-12-18T00:09:01.101Z,994.79
2018-12-18T00:10:01.041Z,994.86
2018-12-18T00:11:00.978Z,994.84
2018-12-18T00:12:00.916Z,994.87
2018-12-18T00:13:00.856Z,994.83
2018-12-18T00:14:00.794Z,994.85
2018-12-18T00:15:00.736Z,994.85
2018-12-18T00:16:00.671Z,994.86
2018-12-18T00:17:00.610Z,994.84
2018-12-18T00:18:00.548Z,994.82
2018-12-18T00:19:00.490Z,994.84
2018-12-18T00:20:00.426Z,994.84
2018-12-18T00:21:00.365Z,994.85
2018-12-18T00:22:00.305Z,994.87
2018-12-18T00:23:00.242Z,994.82
2018-12-18T00:24:00.181Z,994.83
2018-12-18T00:25:00.120Z,994.82
2018-12-18T00:26:00.058Z,994.80
2018-12-18T00:26:59.996Z,994.80
2018-12-18T00:27:59.940Z,994.84
2018-12-18T00:28:59.878Z,994.79
2018-12-18T00:29:59.815Z,994.81
2018-12-18T00:30:59.754Z,994.83
2018-12-18T00:31:59.691Z,994.83
2018-12-18T00:32:59.630Z,994.82
2018-12-18T00:33:59.568Z,994.80
2018-12-18T00:34:59.508Z,994.81
2018-12-18T00:35:59.446Z,994.77
2018-12-18T00:36:59.385Z,994.83
2018-12-18T00:37:59.323Z,994.82
2018-12-18T00:38:59.262Z,994.86
2018-12-18T00:39:59.202Z,994.79
2018-12-18T00:40:59.141Z,994.77
2018-12-18T00:41:59.080Z,994.78
2018-12-18T00:42:59.017Z,994.81
2018-12-18T00:43:58.957Z,994.77
2018-12-18T00:44:58.898Z,994.79
2018-12-18T00:45:58.834Z,994.77
2018-12-18T00:46:58.777Z,994.81
2018-12-18T00:47:58.714Z,994.74
2018-12-18T00:48:58.650Z,994.77
2018-12-18T00:49:58.589Z,994.74
2018-12-18T00:50:58.527Z,994.81
2018-12-18T00:51:58.466Z,994.76
2018-12-18T00:52:58.406Z,994.77
2018-12-18T00:53:58.343Z,994.80
2018-12-18T00:54:58.283Z,994.77
2018-12-18T00:55:58.221Z,994.75
2018-12-18T00:56:58.160Z,994.75
2018-12-18T00:57:58.099Z,994.76
2018-12-18T00:58:58.040Z,994.81
2018-12-18T00:59:57.976Z,994.77
2018-12-18T01:00:57.915Z,994.71
2018-12-18T01:01:57.854Z,994.73
2018-12-18T01:02:57.793Z,994.72
2018-12-18T01:03:57.734Z,994.73
2018-12-18T01:04:57.671Z,994.71
2018-12-18T01:05:57.608Z,994.67
2018-12-18T01:06:57.630Z,994.71
2018-12-18T01:07:57.488Z,994.72
2018-12-18T01:08:57.428Z,994.66
2018-12-18T01:09:57.366Z,994.66
2018-12-18T01:10:57.303Z,994.65
2018-12-18T01:11:57.243Z,994.64
2018-12-18T01:12:57.181Z,994.66
2018-12-18T01:13:57.121Z,994.70
2018-12-18T01:14:57.058Z,994.70
2018-12-18T01:15:56.997Z,994.70
2018-12-18T01:16:56.935Z,994.72
2018-12-18T01:17:56.874Z,994.72
2018-12-18T01:18:56.812Z,994.72
2018-12-18T01:19:56.752Z,994.74
2018-12-18T01:20:56.694Z,994.73
2018-12-18T01:21:56.813Z,994.71
2018-12-18T01:22:56.569Z,994.71
2018-12-18T01:23:56.507Z,994.69
2018-12-18T01:24:56.448Z,994.71
2018-12-18T01:25:56.384Z,994.71
2018-12-18T01:26:56.325Z,994.67
2018-12-18T01:27:56.262Z,994.77
2018-12-18T01:28:56.201Z,994.79
2018-12-18T01:29:56.141Z,994.80
2018-12-18T01:30:56.078Z,994.77
2018-12-18T01:31:56.017Z,994.78
2018-12-18T01:32:55.956Z,994.82
2018-12-18T01:33:59.293Z,994.81
2018-12-18T01:34:55.833Z,994.77
2018-12-18T01:35:55.778Z,994.75
2018-12-18T01:36:55.712Z,994.80
2018-12-18T01:37:55.650Z,994.80
2018-12-18T01:38:55.590Z,994.82
2018-12-18T01:39:55.529Z,994.80
2018-12-18T01:40:55.466Z,994.77
2018-12-18T01:41:55.405Z,994.82
2018-12-18T01:42:55.344Z,994.84
2018-12-18T01:43:55.284Z,994.87
2018-12-18T01:44:55.222Z,994.81
2018-12-18T01:45:55.162Z,994.85
2018-12-18T01:46:55.100Z,994.84
2018-12-18T01:47:55.038Z,994.79
2018-12-18T01:48:54.978Z,994.82
2018-12-18T01:49:54.922Z,994.84
2018-12-18T01:50:54.855Z,994.87
2018-12-18T01:51:54.793Z,994.87
2018-12-18T01:52:54.733Z,994.84
2018-12-18T01:53:54.670Z,994.82
2018-12-18T01:54:54.610Z,994.83
2018-12-18T01:55:54.549Z,994.82
2018-12-18T01:56:54.488Z,994.79
2018-12-18T01:57:54.425Z,994.81
2018-12-18T01:58:54.365Z,994.78
2018-12-18T01:59:54.305Z,994.78
2018-12-18T02:00:54.244Z,994.76
2018-12-18T02:01:54.183Z,994.70
2018-12-18T02:02:54.120Z,994.75
2018-12-18T02:03:54.067Z,994.66
2018-12-18T02:04:54.001Z,994.72
2018-12-18T02:05:54.058Z,994.67
2018-12-18T02:06:53.876Z,994.66
2018-12-18T02:07:53.820Z,994.63
2018-12-18T02:08:53.752Z,994.59
2018-12-18T02:09:53.692Z,994.57
2018-12-18T02:10:53.631Z,994.57
2018-12-18T02:11:53.570Z,994.57
2018-12-18T02:12:53.508Z,994.56
2018-12-18T02:13:53.447Z,994.56
2018-12-18T02:14:53.385Z,994.59
2018-12-18T02:15:53.324Z,994.57
2018-12-18T02:16:53.264Z,994.57
2018-12-18T02:17:53.201Z,994.56
2018-12-18T02:18:53.141Z,994.57
2018-12-18T02:19:53.080Z,994.55
2018-12-18T02:20:53.020Z,994.53
2018-12-18T02:21:52.958Z,994.55
2018-12-18T02:22:52.896Z,994.55
2018-12-18T02:23:52.835Z,994.52
2018-12-18T02:24:52.774Z,994.50
2018-12-18T02:25:52.712Z,994.52
2018-12-18T02:26:52.651Z,994.53
2018-12-18T02:27:52.593Z,994.47
2018-12-18T02:28:52.529Z,994.44
2018-12-18T02:29:52.466Z,994.43
2018-12-18T02:30:52.407Z,994.40
2018-12-18T02:31:52.347Z,994.43
2018-12-18T02:32:52.288Z,994.41
2018-12-18T02:33:52.223Z,994.39
2018-12-18T02:34:52.163Z,994.36
2018-12-18T02:35:52.102Z,994.35
2018-12-18T02:36:52.039Z,994.38
2018-12-18T02:37:51.977Z,994.36
2018-12-18T02:38:51.916Z,994.38
2018-12-18T02:39:51.855Z,994.34
2018-12-18T02:40:51.795Z,994.31
2018-12-18T02:41:51.733Z,994.30
2018-12-18T02:42:51.671Z,994.28
2018-12-18T02:43:51.613Z,994.30
2018-12-18T02:44:51.551Z,994.25
2018-12-18T02:45:51.489Z,994.26
2018-12-18T02:46:51.427Z,994.32
2018-12-18T02:47:51.369Z,994.35
2018-12-18T02:48:51.306Z,994.31
2018-12-18T02:49:51.243Z,994.35
2018-12-18T02:50:51.193Z,994.36
2018-12-18T02:51:51.121Z,994.38
2018-12-18T02:52:51.065Z,994.32
2018-12-18T02:53:51.005Z,994.29
2018-12-18T02:54:50.942Z,994.29
2018-12-18T02:55:50.876Z,994.27
2018-12-18T02:56:50.815Z,994.23
2018-12-18T02:57:50.753Z,994.26
2018-12-18T02:58:50.693Z,994.26
2018-12-18T02:59:50.632Z,994.27
2018-12-18T03:00:50.572Z,994.27
2018-12-18T03:01:50.508Z,994.20
2018-12-18T03:02:50.449Z,994.20
2018-12-18T03:03:50.390Z,994.18
2018-12-18T03:04:50.327Z,994.18
2018-12-18T03:05:50.264Z,994.20
2018-12-18T03:06:50.203Z,994.22
2018-12-18T03:07:50.143Z,994.17
2018-12-18T03:08:50.081Z,994.21
2018-12-18T03:09:50.019Z,994.20
2018-12-18T03:10:49.959Z,994.15
2018-12-18T03:11:49.899Z,994.15
2018-12-18T03:12:49.836Z,994.16
2018-12-18T03:13:49.776Z,994.12
2018-12-18T03:14:49.714Z,994.13
2018-12-18T03:15:49.653Z,994.13
2018-12-18T03:16:49.598Z,994.12
2018-12-18T03:17:49.530Z,994.14
2018-12-18T03:18:49.470Z,994.15
2018-12-18T03:19:49.408Z,994.15
2018-12-18T03:20:49.347Z,994.14
2018-12-18T03:21:49.285Z,994.15
2018-12-18T03:22:49.228Z,994.14
2018-12-18T03:23:49.162Z,994.20
2018-12-18T03:24:49.102Z,994.18
2018-12-18T03:25:49.041Z,994.18
2018-12-18T03:26:48.979Z,994.14
2018-12-18T03:27:48.918Z,994.18
2018-12-18T03:28:48.859Z,994.11
2018-12-18T03:29:48.800Z,994.12
2018-12-18T03:30:48.735Z,994.08
2018-12-18T03:31:48.674Z,994.08
2018-12-18T03:32:48.613Z,994.10
2018-12-18T03:33:48.552Z,994.08
2018-12-18T03:34:48.489Z,994.06
2018-12-18T03:35:48.428Z,994.08
2018-12-18T03:36:48.368Z,994.12
2018-12-18T03:37:48.305Z,994.12
2018-12-18T03:38:48.254Z,994.10
2018-12-18T03:39:48.184Z,994.11
2018-12-18T03:40:48.122Z,994.09
2018-12-18T03:41:48.060Z,994.09
2018-12-18T03:42:47.999Z,994.05
2018-12-18T03:43:47.938Z,994.04
2018-12-18T03:44:47.879Z,993.99
2018-12-18T03:45:47.814Z,993.93
2018-12-18T03:46:47.754Z,993.94
2018-12-18T03:47:47.695Z,993.90
2018-12-18T03:48:47.632Z,993.87
2018-12-18T03:49:47.570Z,993.90
2018-12-18T03:50:47.509Z,993.86
2018-12-18T03:51:47.448Z,993.92
2018-12-18T03:52:47.401Z,993.87
2018-12-18T03:53:47.325Z,993.89
2018-12-18T03:54:47.267Z,993.88
2018-12-18T03:55:47.204Z,993.86
2018-12-18T03:56:47.143Z,993.86
2018-12-18T03:57:47.081Z,993.83
2018-12-18T03:58:47.019Z,993.84
2018-12-18T03:59:46.959Z,993.82
2018-12-18T04:00:46.898Z,993.84
2018-12-18T04:01:46.835Z,993.84
2018-12-18T04:02:46.775Z,993.84
2018-12-18T04:03:46.716Z,993.83
2018-12-18T04:04:46.658Z,993.86
2018-12-18T04:05:46.592Z,993.86
2018-12-18T04:06:46.530Z,993.80
2018-12-18T04:07:46.469Z,993.78
2018-12-18T04:08:46.410Z,993.87
2018-12-18T04:09:46.346Z,993.86
2018-12-18T04:10:46.289Z,993.89
2018-12-18T04:11:46.236Z,993.83
2018-12-18T04:12:46.163Z,993.84
2018-12-18T04:13:46.101Z,993.85
2018-12-18T04:14:46.041Z,993.86
2018-12-18T04:15:45.981Z,993.83
2018-12-18T04:16:45.919Z,993.88
2018-12-18T04:17:45.857Z,993.85
2018-12-18T04:18:45.797Z,993.90
2018-12-18T04:19:45.735Z,993.92
2018-12-18T04:20:45.684Z,993.93
2018-12-18T04:21:45.612Z,993.92
2018-12-18T04:22:45.552Z,993.87
2018-12-18T04:23:45.490Z,993.89
2018-12-18T04:24:45.435Z,993.94
2018-12-18T04:25:45.423Z,993.95
2018-12-18T04:26:45.311Z,993.89
2018-12-18T04:27:45.246Z,993.91
2018-12-18T04:28:45.185Z,993.96
2018-12-18T04:29:45.123Z,993.90
2018-12-18T04:30:45.064Z,993.90
2018-12-18T04:31:45.001Z,993.91
2018-12-18T04:32:44.942Z,993.90
2018-12-18T04:33:44.878Z,993.89
2018-12-18T04:34:44.817Z,993.94
2018-12-18T04:35:44.756Z,993.90
2018-12-18T04:36:44.695Z,993.93
2018-12-18T04:37:44.640Z,993.90
2018-12-18T04:38:44.573Z,993.89
2018-12-18T04:39:44.512Z,993.92
2018-12-18T04:40:44.452Z,993.85
2018-12-18T04:41:44.390Z,993.89
2018-12-18T04:42:44.327Z,993.91
2018-12-18T04:43:44.267Z,993.86
2018-12-18T04:44:44.205Z,993.87
2018-12-18T04:45:44.151Z,993.85
2018-12-18T04:46:44.087Z,993.81
2018-12-18T04:47:44.024Z,993.82
2018-12-18T04:48:43.961Z,993.76
2018-12-18T04:49:43.920Z,993.80
2018-12-18T04:50:43.844Z,993.80
2018-12-18T04:51:43.778Z,993.80
2018-12-18T04:52:43.716Z,993.77
2018-12-18T04:53:43.656Z,993.83
2018-12-18T04:54:43.598Z,993.79
2018-12-18T04:55:43.533Z,993.81
2018-12-18T04:56:43.472Z,993.81
2018-12-18T04:57:43.412Z,993.80
2018-12-18T04:58:43.374Z,993.80
2018-12-18T04:59:43.288Z,993.81
2018-12-18T05:00:43.228Z,993.82
2018-12-18T05:01:43.164Z,993.84
2018-12-18T05:02:43.104Z,993.87
2018-12-18T05:03:43.043Z,993.84
2018-12-18T05:04:50.012Z,993.90
2018-12-18T05:05:42.919Z,993.87
2018-12-18T05:06:42.859Z,993.87
2018-12-18T05:07:42.798Z,993.83
2018-12-18T05:08:42.737Z,993.89
2018-12-18T05:09:42.675Z,993.91
2018-12-18T05:10:42.613Z,993.88
2018-12-18T05:11:42.553Z,993.97
2018-12-18T05:12:42.491Z,993.97
2018-12-18T05:13:42.429Z,993.94
2018-12-18T05:14:42.374Z,993.97
2018-12-18T05:15:42.318Z,993.95
2018-12-18T05:16:42.247Z,994.04
2018-12-18T05:17:42.185Z,994.02
2018-12-18T05:18:42.134Z,994.03
2018-12-18T05:19:42.064Z,994.00
2018-12-18T05:20:42.010Z,994.00
2018-12-18T05:21:41.940Z,994.03
2018-12-18T05:22:41.878Z,994.02
2018-12-18T05:23:41.822Z,993.94
2018-12-18T05:24:41.760Z,993.98
2018-12-18T05:25:41.715Z,993.94
2018-12-18T05:26:41.635Z,993.94
2018-12-18T05:27:41.575Z,993.92
2018-12-18T05:28:41.514Z,993.92
2018-12-18T05:29:41.467Z,993.93
2018-12-18T05:30:41.395Z,993.90
2018-12-18T05:31:41.329Z,993.92
2018-12-18T05:32:41.268Z,993.93
2018-12-18T05:33:41.206Z,993.96
2018-12-18T05:34:41.144Z,993.91
2018-12-18T05:35:41.082Z,993.90
2018-12-18T05:36:41.021Z,993.91
2018-12-18T05:37:40.961Z,993.91
2018-12-18T05:38:40.903Z,993.88
2018-12-18T05:39:40.837Z,993.89
2018-12-18T05:40:40.785Z,993.90
2018-12-18T05:41:40.720Z,993.91
2018-12-18T05:42:40.656Z,993.92
2018-12-18T05:43:40.592Z,993.85
2018-12-18T05:44:40.536Z,993.89
2018-12-18T05:45:40.469Z,993.91
2018-12-18T05:46:40.409Z,993.90
2018-12-18T05:47:40.348Z,993.86
2018-12-18T05:48:40.286Z,993.91
2018-12-18T05:49:40.228Z,993.92
2018-12-18T05:50:40.163Z,993.96
2018-12-18T05:51:40.187Z,993.94
2018-12-18T05:52:40.041Z,993.93
2018-12-18T05:53:39.979Z,993.93
2018-12-18T05:54:39.918Z,993.93
2018-12-18T05:55:39.858Z,993.97
2018-12-18T05:56:39.796Z,993.93
2018-12-18T05:57:39.734Z,993.88
2018-12-18T05:58:39.672Z,993.92
2018-12-18T05:59:39.612Z,993.94
2018-12-18T06:00:39.554Z,993.96
2018-12-18T06:01:39.496Z,993.97
2018-12-18T06:02:39.430Z,993.97
2018-12-18T06:03:39.366Z,994.02
2018-12-18T06:04:39.312Z,993.99
2018-12-18T06:05:39.243Z,994.04
2018-12-18T06:06:39.185Z,994.01
2018-12-18T06:07:39.121Z,994.00
2018-12-18T06:08:39.060Z,994.01
2018-12-18T06:09:39.002Z,993.98
2018-12-18T06:10:38.937Z,993.94
2018-12-18T06:11:38.875Z,994.00
2018-12-18T06:12:38.815Z,993.96
2018-12-18T06:13:38.753Z,993.93
2018-12-18T06:14:38.691Z,993.96
2018-12-18T06:15:38.630Z,993.96
2018-12-18T06:16:38.569Z,993.93
2018-12-18T06:17:38.508Z,994.06
2018-12-18T06:18:38.447Z,994.03
2018-12-18T06:19:38.388Z,994.06
2018-12-18T06:20:38.324Z,994.03
2018-12-18T06:21:38.276Z,994.10
2018-12-18T06:22:38.200Z,994.06
2018-12-18T06:23:38.163Z,994.06
2018-12-18T06:24:38.082Z,994.14
2018-12-18T06:25:38.022Z,994.13
2018-12-18T06:26:37.955Z,994.16
2018-12-18T06:27:37.893Z,994.19
2018-12-18T06:28:37.835Z,994.20
2018-12-18T06:29:37.771Z,994.18
2018-12-18T06:30:37.715Z,994.17
2018-12-18T06:31:37.648Z,994.17
2018-12-18T06:32:37.587Z,994.19
2018-12-18T06:33:37.525Z,994.20
2018-12-18T06:34:37.464Z,994.16
2018-12-18T06:35:37.403Z,994.17
2018-12-18T06:36:37.342Z,994.20
2018-12-18T06:37:37.282Z,994.22
2018-12-18T06:38:37.219Z,994.20
2018-12-18T06:39:37.158Z,994.22
2018-12-18T06:40:37.165Z,994.17
2018-12-18T06:41:37.033Z,994.17
2018-12-18T06:42:36.975Z,994.17
2018-12-18T06:43:36.912Z,994.13
2018-12-18T06:44:36.856Z,994.15
2018-12-18T06:45:36.790Z,994.12
2018-12-18T06:46:36.731Z,994.12
2018-12-18T06:47:36.670Z,994.11
2018-12-18T06:48:36.605Z,994.10
2018-12-18T06:49:36.547Z,994.07
2018-12-18T06:50:36.484Z,994.12
2018-12-18T06:51:36.420Z,994.05
2018-12-18T06:52:36.359Z,994.06
2018-12-18T06:53:36.298Z,994.05
2018-12-18T06:54:36.237Z,994.09
2018-12-18T06:55:36.175Z,994.08
2018-12-18T06:56:36.115Z,994.02
2018-12-18T06:57:36.052Z,994.08
2018-12-18T06:58:35.992Z,994.04
2018-12-18T06:59:35.933Z,993.99
2018-12-18T07:00:35.869Z,994.02
2018-12-18T07:01:35.806Z,993.93
2018-12-18T07:02:35.746Z,993.87
2018-12-18T07:03:35.684Z,993.89
2018-12-18T07:04:35.625Z,993.89
2018-12-18T07:05:35.561Z,993.91
2018-12-18T07:06:35.500Z,993.91
2018-12-18T07:07:35.439Z,993.92
2018-12-18T07:08:35.378Z,993.98
2018-12-18T07:09:35.314Z,994.03
2018-12-18T07:10:35.255Z,994.04
2018-12-18T07:11:35.192Z,994.01
2018-12-18T07:12:35.132Z,993.96
2018-12-18T07:13:35.070Z,993.93
2018-12-18T07:14:35.008Z,993.92
2018-12-18T07:15:34.947Z,993.89
2018-12-18T07:16:34.889Z,993.87
2018-12-18T07:17:34.823Z,993.89
2018-12-18T07:18:34.766Z,993.89
2018-12-18T07:19:34.701Z,993.97
2018-12-18T07:20:34.640Z,993.86
2018-12-18T07:21:34.578Z,993.84
2018-12-18T07:22:34.517Z,993.77
2018-12-18T07:23:34.456Z,993.76
2018-12-18T07:24:34.396Z,993.78
2018-12-18T07:25:34.376Z,993.79
2018-12-18T07:26:34.273Z,993.81
2018-12-18T07:27:34.219Z,993.82
2018-12-18T07:28:34.217Z,993.87
2018-12-18T07:29:34.087Z,993.85
2018-12-18T07:30:34.036Z,993.97
2018-12-18T07:31:33.975Z,993.92
2018-12-18T07:32:33.902Z,993.92
2018-12-18T07:33:33.840Z,993.91
2018-12-18T07:34:33.782Z,993.91
2018-12-18T07:35:33.721Z,993.96
2018-12-18T07:36:33.657Z,993.89
2018-12-18T07:37:33.594Z,993.95
2018-12-18T07:38:33.534Z,993.96
2018-12-18T07:39:33.474Z,993.90
2018-12-18T07:40:33.411Z,993.88
2018-12-18T07:41:33.352Z,993.87
2018-12-18T07:42:33.288Z,993.87
2018-12-18T07:43:33.229Z,993.86
2018-12-18T07:44:33.167Z,993.86
2018-12-18T07:45:33.106Z,993.85
2018-12-18T07:46:33.045Z,993.84
2018-12-18T07:47:32.982Z,993.82
2018-12-18T07:48:32.920Z,993.94
2018-12-18T07:49:32.858Z,993.90
2018-12-18T07:50:32.797Z,993.90
2018-12-18T07:51:32.743Z,993.83
2018-12-18T07:52:32.675Z,993.84
2018-12-18T07:53:32.614Z,993.81
2018-12-18T07:54:32.553Z,993.85
2018-12-18T07:55:32.492Z,993.84
2018-12-18T07:56:32.430Z,993.83
2018-12-18T07:57:32.404Z,993.84
2018-12-18T07:58:32.310Z,993.78
2018-12-18T07:59:32.246Z,993.78
2018-12-18T08:00:32.185Z,993.75
2018-12-18T08:01:32.120Z,993.71
2018-12-18T08:02:32.061Z,993.71
2018-12-18T08:03:32.001Z,993.71
2018-12-18T08:04:31.941Z,993.73
2018-12-18T08:05:31.875Z,993.73
2018-12-18T08:06:31.813Z,993.73
2018-12-18T08:07:31.752Z,993.74
2018-12-18T08:08:31.691Z,993.76
2018-12-18T08:09:31.638Z,993.77
2018-12-18T08:10:31.570Z,993.68
2018-12-18T08:11:31.507Z,993.79
2018-12-18T08:12:31.444Z,993.80
2018-12-18T08:13:31.383Z,993.79
2018-12-18T08:14:31.322Z,993.82
2018-12-18T08:15:31.260Z,993.87
2018-12-18T08:16:31.203Z,993.80
2018-12-18T08:17:31.139Z,993.76
2018-12-18T08:18:31.082Z,993.77
2018-12-18T08:19:31.014Z,993.79
2018-12-18T08:20:30.953Z,993.81
2018-12-18T08:21:30.892Z,993.81
2018-12-18T08:22:30.831Z,993.85
2018-12-18T08:23:30.769Z,993.85
2018-12-18T08:24:30.708Z,993.80
2018-12-18T08:25:30.646Z,993.82
2018-12-18T08:26:30.583Z,993.83
2018-12-18T08:27:30.524Z,993.78
2018-12-18T08:28:30.461Z,993.76
2018-12-18T08:29:30.406Z,993.73
2018-12-18T08:30:30.341Z,993.68
2018-12-18T08:31:30.276Z,993.68
2018-12-18T08:32:30.218Z,993.70
2018-12-18T08:33:30.152Z,993.69
2018-12-18T08:34:30.091Z,993.69
2018-12-18T08:35:36.275Z,993.68
2018-12-18T08:36:29.970Z,993.64
2018-12-18T08:37:29.906Z,993.67
2018-12-18T08:38:29.870Z,993.67
2018-12-18T08:39:29.784Z,993.65
2018-12-18T08:40:29.723Z,993.68
2018-12-18T08:41:29.660Z,993.69
2018-12-18T08:42:29.600Z,993.65
2018-12-18T08:43:29.538Z,993.64
2018-12-18T08:44:29.476Z,993.65
2018-12-18T08:45:29.417Z,993.67
2018-12-18T08:46:29.356Z,993.67
2018-12-18T08:47:29.292Z,993.69
2018-12-18T08:48:29.271Z,993.72
2018-12-18T08:49:29.169Z,993.75
2018-12-18T08:50:29.107Z,993.76
2018-12-18T08:51:29.048Z,993.80
2018-12-18T08:52:28.986Z,993.79
2018-12-18T08:53:28.923Z,993.79
2018-12-18T08:54:28.861Z,993.78
2018-12-18T08:55:28.799Z,993.75
2018-12-18T08:56:28.739Z,993.76
2018-12-18T08:57:28.676Z,993.77
2018-12-18T08:58:28.615Z,993.78
2018-12-18T08:59:28.558Z,993.76
2018-12-18T09:00:28.493Z,993.80
2018-12-18T09:01:28.430Z,993.77
2018-12-18T09:02:28.369Z,993.74
2018-12-18T09:03:28.307Z,993.72
2018-12-18T09:04:28.248Z,993.73
2018-12-18T09:05:28.184Z,993.75
2018-12-18T09:06:28.122Z,993.76
2018-12-18T09:07:28.073Z,993.70
2018-12-18T09:08:28.003Z,993.72
2018-12-18T09:09:27.938Z,993.68
2018-12-18T09:10:27.877Z,993.65
2018-12-18T09:11:27.817Z,993.63
2018-12-18T09:12:27.754Z,993.63
2018-12-18T09:13:27.693Z,993.62
2018-12-18T09:14:27.630Z,993.64
2018-12-18T09:15:27.569Z,993.67
2018-12-18T09:16:27.507Z,993.62
2018-12-18T09:17:27.446Z,993.68
2018-12-18T09:18:27.387Z,993.68
2018-12-18T09:19:27.327Z,993.69
2018-12-18T09:20:27.261Z,993.66
2018-12-18T09:21:27.199Z,993.69
2018-12-18T09:22:27.138Z,993.67
2018-12-18T09:23:27.076Z,993.66
2018-12-18T09:24:27.015Z,993.65
2018-12-18T09:25:26.954Z,993.63
2018-12-18T09:26:26.892Z,993.61
2018-12-18T09:27:26.830Z,993.61
2018-12-18T09:28:26.769Z,993.59
2018-12-18T09:29:26.710Z,993.61
2018-12-18T09:30:26.646Z,993.55
2018-12-18T09:31:26.587Z,993.56
2018-12-18T09:32:26.522Z,993.55
2018-12-18T09:33:26.460Z,993.48
2018-12-18T09:34:26.399Z,993.46
2018-12-18T09:35:26.339Z,993.41
2018-12-18T09:36:26.278Z,993.42
2018-12-18T09:37:26.214Z,993.41
2018-12-18T09:38:26.154Z,993.36
2018-12-18T09:39:26.096Z,993.35
2018-12-18T09:40:26.031Z,993.33
2018-12-18T09:41:25.971Z,993.35
2018-12-18T09:42:25.907Z,993.32
2018-12-18T09:43:25.848Z,993.30
2018-12-18T09:44:25.788Z,993.25
2018-12-18T09:45:25.724Z,993.28
2018-12-18T09:46:25.662Z,993.24
2018-12-18T09:47:25.601Z,993.26
2018-12-18T09:48:25.540Z,993.22
2018-12-18T09:49:25.478Z,993.19
2018-12-18T09:50:25.417Z,993.21
2018-12-18T09:51:25.355Z,993.15
2018-12-18T09:52:25.297Z,993.12
2018-12-18T09:53:25.232Z,993.14
2018-12-18T09:54:25.170Z,993.08
2018-12-18T09:55:25.117Z,993.02
2018-12-18T09:56:25.048Z,993.04
2018-12-18T09:57:24.986Z,993.04
2018-12-18T09:58:24.932Z,993.00
2018-12-18T09:59:24.886Z,993.01
2018-12-18T10:00:24.819Z,993.00
2018-12-18T10:01:24.745Z,992.97
2018-12-18T10:02:24.679Z,992.95
2018-12-18T10:03:24.624Z,992.97
2018-12-18T10:04:24.556Z,992.95
2018-12-18T10:05:24.495Z,992.92
2018-12-18T10:06:24.432Z,992.91
2018-12-18T10:07:24.385Z,992.84
2018-12-18T10:08:24.310Z,992.86
2018-12-18T10:09:24.248Z,992.83
2018-12-18T10:10:24.746Z,992.79
2018-12-18T10:11:24.128Z,992.73
2018-12-18T10:12:24.064Z,992.68
2018-12-18T10:13:24.003Z,992.67
2018-12-18T10:14:23.941Z,992.58
2018-12-18T10:15:23.880Z,992.64
2018-12-18T10:16:23.820Z,992.66
2018-12-18T10:17:23.757Z,992.68
2018-12-18T10:18:23.696Z,992.72
2018-12-18T10:19:23.635Z,992.72
2018-12-18T10:20:23.590Z,992.80
2018-12-18T10:21:23.513Z,992.81
2018-12-18T10:22:23.452Z,992.82
2018-12-18T10:23:23.393Z,992.84
2018-12-18T10:24:23.331Z,992.82
2018-12-18T10:25:23.306Z,992.83
2018-12-18T10:26:23.220Z,992.73
2018-12-18T10:27:23.153Z,992.67
2018-12-18T10:28:23.083Z,992.58
2018-12-18T10:29:23.041Z,992.57
2018-12-18T10:30:22.970Z,992.53
2018-12-18T10:31:22.903Z,992.56
2018-12-18T10:32:22.850Z,992.50
2018-12-18T10:33:22.813Z,992.48
2018-12-18T10:34:22.726Z,992.42
2018-12-18T10:35:22.670Z,992.44
2018-12-18T10:36:22.603Z,992.40
2018-12-18T10:37:22.530Z,992.37
2018-12-18T10:38:22.514Z,992.27
2018-12-18T10:39:22.410Z,992.24
2018-12-18T10:40:22.347Z,992.16
2018-12-18T10:41:22.285Z,992.10
2018-12-18T10:42:22.226Z,992.15
2018-12-18T10:43:22.163Z,992.13
2018-12-18T10:44:22.104Z,992.18
2018-12-18T10:45:22.040Z,992.11
2018-12-18T10:46:21.983Z,992.13
2018-12-18T10:47:21.919Z,992.11
2018-12-18T10:48:21.858Z,992.09
2018-12-18T10:49:21.796Z,992.06
2018-12-18T10:50:21.737Z,992.02
2018-12-18T10:51:21.673Z,992.02
2018-12-18T10:52:21.629Z,992.04
2018-12-18T10:53:21.552Z,992.06
2018-12-18T10:54:21.491Z,992.05
2018-12-18T10:55:21.431Z,992.07
2018-12-18T10:56:21.368Z,992.06
2018-12-18T10:57:21.306Z,992.11
2018-12-18T10:58:24.103Z,992.03
2018-12-18T10:59:21.186Z,992.01
2018-12-18T11:00:21.122Z,992.00
2018-12-18T11:01:21.061Z,991.95
2018-12-18T11:02:20.999Z,991.91
2018-12-18T11:03:20.945Z,991.86
2018-12-18T11:04:20.877Z,991.85
2018-12-18T11:05:20.816Z,991.80
2018-12-18T11:06:20.758Z,991.78
2018-12-18T11:07:20.694Z,991.74
2018-12-18T11:08:20.632Z,991.68
2018-12-18T11:09:20.574Z,991.63
2018-12-18T11:10:20.511Z,991.57
2018-12-18T11:11:20.449Z,991.51
2018-12-18T11:12:20.387Z,991.46
2018-12-18T11:13:20.325Z,991.47
2018-12-18T11:14:20.271Z,991.37
2018-12-18T11:15:20.204Z,991.33
2018-12-18T11:16:20.146Z,991.31
2018-12-18T11:17:20.085Z,991.31
2018-12-18T11:18:20.019Z,991.20
2018-12-18T11:19:19.958Z,991.17
2018-12-18T11:20:19.898Z,991.15
2018-12-18T11:21:19.840Z,991.10
2018-12-18T11:22:19.775Z,991.07
2018-12-18T11:23:19.871Z,990.99
2018-12-18T11:24:19.654Z,990.99
2018-12-18T11:25:19.591Z,990.94
2018-12-18T11:26:19.534Z,990.93
2018-12-18T11:27:19.471Z,990.91
2018-12-18T11:28:19.409Z,990.93
2018-12-18T11:29:19.345Z,990.93
2018-12-18T11:30:19.285Z,990.88
2018-12-18T11:31:19.227Z,990.90
2018-12-18T11:32:19.163Z,990.86
2018-12-18T11:33:19.101Z,990.82
2018-12-18T11:34:19.041Z,990.85
2018-12-18T11:35:18.979Z,990.82
2018-12-18T11:36:18.918Z,990.84
2018-12-18T11:37:18.877Z,990.79
2018-12-18T11:38:18.795Z,990.77
2018-12-18T11:39:18.740Z,990.76
2018-12-18T11:40:18.674Z,990.72
2018-12-18T11:41:18.611Z,990.71
2018-12-18T11:42:18.550Z,990.65
2018-12-18T11:43:18.490Z,990.62
2018-12-18T11:44:18.446Z,990.65
2018-12-18T11:45:18.369Z,990.64
2018-12-18T11:46:18.306Z,990.62
2018-12-18T11:47:18.244Z,990.58
2018-12-18T11:48:18.183Z,990.58
2018-12-18T11:49:18.122Z,990.57
2018-12-18T11:50:18.062Z,990.52
2018-12-18T11:51:18.000Z,990.47
2018-12-18T11:52:17.941Z,990.39
2018-12-18T11:53:17.877Z,990.38
2018-12-18T11:54:17.815Z,990.38
2018-12-18T11:55:17.758Z,990.38
2018-12-18T11:56:17.696Z,990.36
2018-12-18T11:57:17.632Z,990.36
2018-12-18T11:58:17.571Z,990.34
2018-12-18T11:59:17.511Z,990.32
2018-12-18T12:00:17.450Z,990.32
2018-12-18T12:01:17.389Z,990.31
2018-12-18T12:02:17.327Z,990.31
2018-12-18T12:03:17.277Z,990.30
2018-12-18T12:04:17.209Z,990.36
2018-12-18T12:05:17.144Z,990.27
2018-12-18T12:06:22.843Z,990.32
2018-12-18T12:07:17.022Z,990.24
2018-12-18T12:08:16.963Z,990.19
2018-12-18T12:09:16.898Z,990.25
2018-12-18T12:10:16.837Z,990.18
2018-12-18T12:11:16.777Z,990.21
2018-12-18T12:12:16.717Z,990.19
2018-12-18T12:13:16.656Z,990.17
2018-12-18T12:14:16.593Z,990.15
2018-12-18T12:15:16.533Z,990.20
2018-12-18T12:16:16.471Z,990.18
2018-12-18T12:17:16.412Z,990.20
2018-12-18T12:18:16.348Z,990.15
2018-12-18T12:19:16.287Z,990.17
2018-12-18T12:20:16.230Z,990.15
2018-12-18T12:21:16.164Z,990.15
2018-12-18T12:22:16.103Z,990.19
2018-12-18T12:23:16.052Z,990.18
2018-12-18T12:24:15.985Z,990.13
2018-12-18T12:25:15.921Z,990.11
2018-12-18T12:26:15.859Z,990.05
2018-12-18T12:27:15.800Z,990.09